createdAt,value
2018-12-10T00:00:01.411Z,3.43
2018-12-10T00:02:36.473Z,3.20
2018-12-10T00:05:14.710Z,4.60
2018-12-10T00:07:47.524Z,2.33
2018-12-10T00:10:25.856Z,3.97
2018-12-10T00:13:00.705Z,3.43
2018-12-10T00:15:34.548Z,5.73
2018-12-10T00:18:08.703Z,5.03
2018-12-10T00:23:32.225Z,8.20
2018-12-10T00:26:10.697Z,4.50
2018-12-10T00:28:45.564Z,4.43
2018-12-10T00:34:11.626Z,3.60
2018-12-10T00:36:43.381Z,3.70
2018-12-10T00:39:18.222Z,3.57
2018-12-10T00:41:52.223Z,3.23
2018-12-10T00:44:25.995Z,3.60
2018-12-10T00:47:01.415Z,3.70
2018-12-10T00:49:35.834Z,3.27
2018-12-10T00:52:14.836Z,2.93
2018-12-10T00:54:49.406Z,3.70
2018-12-10T00:57:18.531Z,3.30
2018-12-10T01:02:47.131Z,3.60
2018-12-10T01:05:18.293Z,3.43
2018-12-10T01:07:46.681Z,3.60
2018-12-10T01:13:16.947Z,3.43
2018-12-10T01:15:45.332Z,3.53
2018-12-10T01:18:14.244Z,3.73
2018-12-10T01:23:42.435Z,2.87
2018-12-10T01:26:10.698Z,3.33
2018-12-10T01:31:39.630Z,3.60
2018-12-10T01:34:08.673Z,2.90
2018-12-10T01:36:37.786Z,3.50
2018-12-10T01:42:06.722Z,2.40
2018-12-10T01:44:34.959Z,3.00
2018-12-10T01:47:03.573Z,3.03
2018-12-10T01:52:32.566Z,3.10
2018-12-10T01:55:01.145Z,3.50
2018-12-10T01:57:35.067Z,2.87
2018-12-10T02:00:09.212Z,3.97
2018-12-10T02:02:41.109Z,3.40
2018-12-10T02:05:15.577Z,2.80
2018-12-10T02:07:46.897Z,2.77
2018-12-10T02:10:19.068Z,2.73
2018-12-10T02:12:50.448Z,2.77
2018-12-10T02:15:26.204Z,2.70
2018-12-10T02:17:56.160Z,3.20
2018-12-10T02:20:31.002Z,2.83
2018-12-10T02:23:01.468Z,2.87
2018-12-10T02:25:32.906Z,2.63
2018-12-10T02:28:07.543Z,3.53
2018-12-10T02:30:38.090Z,2.83
2018-12-10T02:33:09.944Z,3.00
2018-12-10T02:35:42.405Z,2.70
2018-12-10T02:38:15.342Z,2.93
2018-12-10T02:40:47.156Z,3.30
2018-12-10T02:43:19.286Z,3.40
2018-12-10T02:45:51.575Z,3.13
2018-12-10T02:48:25.412Z,3.10
2018-12-10T02:50:57.473Z,2.90
2018-12-10T02:53:28.805Z,2.80
2018-12-10T02:56:02.088Z,3.70
2018-12-10T02:58:40.114Z,3.40
2018-12-10T03:01:15.233Z,2.73
2018-12-10T03:03:45.941Z,2.40
2018-12-10T03:06:17.762Z,2.47
2018-12-10T03:08:49.248Z,3.00
2018-12-10T03:11:23.600Z,2.97
2018-12-10T03:13:55.069Z,1.90
2018-12-10T03:16:26.616Z,2.43
2018-12-10T03:19:00.507Z,2.43
2018-12-10T03:21:34.374Z,2.37
2018-12-10T03:24:06.580Z,2.27
2018-12-10T03:26:38.849Z,2.07
2018-12-10T03:29:09.342Z,2.37
2018-12-10T03:31:40.772Z,2.37
2018-12-10T03:34:15.888Z,2.30
2018-12-10T03:36:47.311Z,2.27
2018-12-10T03:39:18.789Z,2.23
2018-12-10T03:41:48.568Z,2.27
2018-12-10T03:44:23.213Z,2.07
2018-12-10T03:46:57.916Z,2.00
2018-12-10T03:49:30.173Z,2.30
2018-12-10T03:52:02.193Z,2.70
2018-12-10T03:54:40.053Z,2.00
2018-12-10T03:57:10.164Z,2.20
2018-12-10T03:59:42.319Z,2.40
2018-12-10T04:51:14.159Z,1.03
2018-12-10T04:53:48.095Z,1.23
2018-12-10T04:56:20.053Z,1.57
2018-12-10T04:58:51.525Z,1.40
2018-12-10T05:01:25.198Z,2.60
2018-12-10T05:04:00.632Z,2.03
2018-12-10T05:06:32.899Z,1.83
2018-12-10T05:09:07.863Z,2.30
2018-12-10T05:11:46.401Z,1.70
2018-12-10T05:14:17.886Z,2.23
2018-12-10T05:16:51.822Z,2.50
2018-12-10T05:19:27.249Z,2.57
2018-12-10T05:21:59.252Z,2.43
2018-12-10T05:24:33.111Z,2.43
2018-12-10T05:27:07.684Z,1.97
2018-12-10T05:29:42.093Z,2.47
2018-12-10T05:33:19.103Z,2.53
2018-12-10T05:35:54.914Z,2.40
2018-12-10T05:38:30.813Z,2.70
2018-12-10T05:44:05.613Z,2.80
2018-12-10T05:46:43.099Z,2.83
2018-12-10T05:49:23.701Z,3.37
2018-12-10T05:51:55.263Z,3.03
2018-12-10T05:54:26.972Z,2.97
2018-12-10T05:56:58.567Z,2.57
2018-12-10T05:59:30.135Z,2.63
2018-12-10T06:02:04.168Z,2.73
2018-12-10T06:04:32.965Z,3.00
2018-12-10T06:07:01.395Z,3.20
2018-12-10T06:09:32.029Z,3.40
2018-12-10T06:12:06.424Z,3.07
2018-12-10T06:14:38.415Z,3.73
2018-12-10T06:17:13.040Z,2.70
2018-12-10T06:19:44.970Z,2.97
2018-12-10T06:22:41.103Z,3.20
2018-12-10T06:25:39.848Z,3.60
2018-12-10T06:28:14.918Z,2.90
2018-12-10T06:30:47.169Z,3.00
2018-12-10T06:33:21.819Z,3.33
2018-12-10T06:35:54.198Z,2.90
2018-12-10T06:38:26.421Z,2.80
2018-12-10T06:40:58.741Z,3.30
2018-12-10T06:46:24.299Z,3.07
2018-12-10T06:48:58.624Z,3.17
2018-12-10T06:51:30.669Z,2.80
2018-12-10T06:54:06.292Z,3.03
2018-12-10T06:56:36.243Z,3.30
2018-12-10T06:59:10.080Z,2.90
2018-12-10T07:53:34.952Z,2.10
2018-12-10T07:56:06.642Z,2.10
2018-12-10T07:58:38.392Z,3.20
2018-12-10T08:01:07.689Z,2.50
2018-12-10T08:03:37.877Z,3.00
2018-12-10T08:06:11.718Z,2.87
2018-12-10T08:08:43.834Z,3.23
2018-12-10T08:11:17.860Z,2.77
2018-12-10T08:13:49.801Z,2.63
2018-12-10T08:16:25.440Z,2.50
2018-12-10T08:18:57.253Z,2.50
2018-12-10T08:21:28.645Z,2.47
2018-12-10T08:24:00.206Z,2.80
2018-12-10T08:26:34.855Z,2.53
2018-12-10T08:29:09.284Z,2.90
2018-12-10T08:31:43.819Z,2.60
2018-12-10T08:34:15.398Z,2.60
2018-12-10T08:36:49.208Z,1.93
2018-12-10T08:39:20.987Z,2.70
2018-12-10T08:53:53.480Z,2.87
2018-12-10T08:56:27.549Z,1.87
2018-12-10T08:59:01.816Z,2.17
2018-12-10T09:01:33.682Z,2.10
2018-12-10T09:04:03.146Z,2.03
2018-12-10T09:06:33.368Z,1.80
2018-12-10T09:09:09.374Z,3.00
2018-12-10T09:11:39.300Z,1.83
2018-12-10T09:14:10.655Z,1.90
2018-12-10T09:16:45.109Z,2.37
2018-12-10T09:19:17.132Z,2.40
2018-12-10T09:21:51.556Z,2.03
2018-12-10T09:24:25.705Z,2.73
2018-12-10T09:26:59.968Z,2.37
2018-12-10T09:29:29.946Z,2.83
2018-12-10T09:47:18.469Z,2.07
2018-12-10T09:49:52.820Z,2.00
2018-12-10T09:52:23.925Z,2.00
2018-12-10T09:54:57.920Z,1.90
2018-12-10T09:57:26.219Z,1.90
2018-12-10T09:59:54.559Z,2.10
2018-12-10T10:27:04.876Z,2.10
2018-12-10T10:29:33.224Z,2.10
2018-12-10T10:32:02.408Z,2.60
2018-12-10T10:34:30.818Z,2.10
2018-12-10T10:39:57.860Z,1.70
2018-12-10T10:42:31.496Z,1.73
2018-12-10T10:45:03.071Z,1.60
2018-12-10T10:47:34.804Z,1.90
2018-12-10T10:50:03.211Z,1.43
2018-12-10T10:52:33.376Z,1.30
2018-12-10T10:55:01.888Z,1.70
2018-12-10T11:00:38.236Z,1.67
2018-12-10T11:03:10.769Z,2.07
2018-12-10T11:05:39.635Z,1.53
2018-12-10T11:11:08.659Z,1.20
2018-12-10T11:13:37.037Z,1.40
2018-12-10T11:21:58.107Z,1.87
2018-12-10T11:24:26.417Z,1.73
2018-12-10T11:49:04.942Z,1.33
2018-12-10T11:51:33.218Z,1.50
2018-12-10T11:54:03.873Z,1.70
2018-12-10T11:59:33.277Z,1.47
2018-12-10T12:02:02.584Z,1.70
2018-12-10T12:04:31.435Z,2.23
2018-12-10T12:10:00.835Z,1.63
2018-12-10T12:12:29.179Z,1.43
2018-12-10T12:14:57.428Z,1.60
2018-12-10T12:20:26.291Z,1.43
2018-12-10T12:22:55.163Z,1.83
2018-12-10T12:25:23.674Z,1.70
2018-12-10T12:30:45.396Z,2.07
2018-12-10T12:33:13.666Z,2.30
2018-12-10T12:35:41.935Z,1.97
2018-12-10T12:41:03.409Z,2.30
2018-12-10T12:43:31.966Z,2.00
2018-12-10T12:46:00.527Z,2.00
2018-12-10T12:54:18.291Z,2.30
2018-12-10T12:56:52.309Z,2.20
2018-12-10T12:59:22.068Z,2.00
2018-12-10T13:01:53.467Z,1.83
2018-12-10T13:04:32.746Z,2.03
2018-12-10T13:07:04.354Z,2.10
2018-12-10T13:09:34.622Z,2.13
2018-12-10T13:12:06.205Z,2.53
2018-12-10T13:14:38.547Z,2.10
2018-12-10T13:20:11.523Z,1.97
2018-12-10T13:22:47.223Z,2.10
2018-12-10T13:25:16.817Z,2.37
2018-12-10T13:27:49.016Z,2.00
2018-12-10T13:30:20.663Z,2.27
2018-12-10T13:32:54.465Z,2.13
2018-12-10T13:35:28.738Z,2.23
2018-12-10T13:37:58.610Z,2.30
2018-12-10T13:40:26.899Z,2.20
2018-12-10T13:42:56.611Z,2.00
2018-12-10T13:45:31.101Z,2.10
2018-12-10T13:48:02.044Z,2.07
2018-12-10T13:50:33.735Z,2.73
2018-12-10T13:53:05.191Z,2.43
2018-12-10T13:55:38.973Z,2.20
2018-12-10T13:58:10.876Z,2.83
2018-12-10T14:00:50.813Z,2.57
2018-12-10T14:03:17.833Z,2.67
2018-12-10T14:05:52.004Z,2.40
2018-12-10T14:08:24.777Z,1.73
2018-12-10T14:10:56.792Z,2.30
2018-12-10T14:13:28.205Z,2.40
2018-12-10T14:16:00.473Z,2.60
2018-12-10T14:18:35.196Z,2.70
2018-12-10T14:21:07.113Z,2.03
2018-12-10T14:23:38.538Z,2.87
2018-12-10T14:26:10.139Z,3.10
2018-12-10T14:28:48.060Z,3.20
2018-12-10T14:31:19.898Z,2.47
2018-12-10T14:33:56.464Z,2.97
2018-12-10T14:36:28.496Z,2.53
2018-12-10T14:41:32.637Z,2.87
2018-12-10T14:44:08.998Z,2.97
2018-12-10T14:49:44.461Z,2.80
2018-12-10T14:52:17.012Z,2.53
2018-12-10T14:54:48.396Z,2.73
2018-12-10T14:57:23.442Z,2.90
2018-12-10T14:59:55.129Z,3.00
2018-12-10T15:02:28.907Z,3.00
2018-12-10T15:05:01.300Z,3.90
2018-12-10T15:07:35.315Z,3.70
2018-12-10T15:10:10.085Z,4.20
2018-12-10T15:12:43.963Z,3.40
2018-12-10T15:15:13.750Z,3.80
2018-12-10T15:17:54.640Z,3.33
2018-12-10T15:54:04.403Z,3.63
2018-12-10T15:56:42.237Z,2.50
2018-12-10T15:59:16.687Z,3.30
2018-12-10T16:01:50.730Z,3.00
2018-12-10T16:04:21.530Z,3.43
2018-12-10T16:06:53.177Z,2.57
2018-12-10T16:09:21.522Z,3.43
2018-12-10T16:14:56.786Z,3.27
2018-12-10T16:17:25.185Z,3.40
2018-12-10T16:19:54.095Z,3.27
2018-12-10T16:22:26.139Z,4.13
2018-12-10T16:24:54.583Z,3.60
2018-12-10T16:27:23.212Z,3.37
2018-12-10T16:29:57.003Z,3.53
2018-12-10T16:35:26.543Z,3.13
2018-12-10T16:38:00.446Z,3.53
2018-12-10T16:40:34.731Z,3.17
2018-12-10T16:43:04.492Z,3.73
2018-12-10T16:45:38.370Z,3.43
2018-12-10T16:48:10.349Z,4.70
2018-12-10T16:53:48.283Z,4.23
2018-12-10T16:56:35.448Z,4.07
2018-12-10T16:59:07.652Z,4.33
2018-12-10T17:01:42.101Z,3.97
2018-12-10T17:04:13.068Z,4.03
2018-12-10T17:06:45.441Z,4.10
2018-12-10T17:09:16.022Z,4.70
2018-12-10T17:11:48.487Z,4.13
2018-12-10T17:14:23.164Z,4.30
2018-12-10T17:16:52.983Z,3.83
2018-12-10T17:19:27.701Z,4.03
2018-12-10T17:21:59.680Z,4.33
2018-12-10T17:24:33.533Z,4.40
2018-12-10T17:27:07.819Z,4.37
2018-12-10T17:29:40.158Z,4.33
2018-12-10T17:32:11.776Z,4.37
2018-12-10T17:34:45.605Z,3.93
2018-12-10T17:37:15.694Z,4.80
2018-12-10T17:39:50.424Z,5.03
2018-12-10T17:42:23.517Z,5.83
2018-12-10T17:44:55.874Z,5.17
2018-12-10T17:47:27.392Z,5.57
2018-12-10T17:49:56.995Z,4.80
2018-12-10T17:52:29.409Z,4.23
2018-12-10T17:55:04.177Z,0.00
2018-12-10T17:57:38.488Z,0.10
2018-12-10T18:00:10.371Z,0.10
2018-12-10T18:02:40.678Z,0.20
2018-12-10T18:05:14.148Z,0.00
2018-12-10T18:07:47.980Z,0.00
2018-12-10T18:10:20.396Z,0.33
2018-12-10T18:12:52.474Z,0.03
2018-12-10T18:15:24.734Z,0.00
2018-12-10T18:17:56.335Z,0.37
2018-12-10T18:20:27.715Z,0.10
2018-12-10T18:22:57.236Z,0.20
2018-12-10T18:25:31.955Z,0.30
2018-12-10T18:28:02.164Z,0.03
2018-12-10T18:30:36.634Z,0.20
2018-12-10T18:33:09.340Z,0.20
2018-12-10T18:35:40.840Z,0.03
2018-12-10T18:38:12.499Z,0.00
2018-12-10T18:40:44.689Z,0.13
2018-12-10T18:43:16.984Z,0.10
2018-12-10T18:45:48.268Z,0.00
2018-12-10T18:48:20.082Z,0.20
2018-12-10T18:50:54.883Z,1.20
2018-12-10T18:53:26.499Z,0.70
2018-12-10T18:55:57.937Z,0.10
2018-12-10T18:58:27.577Z,0.47
2018-12-10T19:00:59.857Z,0.37
2018-12-10T19:03:31.848Z,0.20
2018-12-10T19:06:02.945Z,0.20
2018-12-10T19:08:36.702Z,1.27
2018-12-10T19:11:08.384Z,0.40
2018-12-10T19:13:42.842Z,0.67
2018-12-10T19:52:55.470Z,0.10
2018-12-10T19:55:27.317Z,0.30
2018-12-10T19:58:01.855Z,0.17
2018-12-10T20:00:32.219Z,0.27
2018-12-10T20:03:05.226Z,0.53
2018-12-10T20:05:45.438Z,0.30
2018-12-10T20:08:14.959Z,0.00
2018-12-10T20:10:48.770Z,0.20
2018-12-10T20:13:23.179Z,1.40
2018-12-10T20:15:53.227Z,0.00
2018-12-10T20:18:23.320Z,0.07
2018-12-10T20:20:55.492Z,0.10
2018-12-10T20:23:29.196Z,0.20
2018-12-10T20:25:59.298Z,0.30
2018-12-10T20:28:34.152Z,0.27
2018-12-10T20:31:09.079Z,0.00
2018-12-10T20:33:43.685Z,1.63
2018-12-10T20:36:12.144Z,3.80
2018-12-10T20:41:33.482Z,1.10
2018-12-10T20:44:01.821Z,0.30
2018-12-10T20:46:30.255Z,0.20
2018-12-10T20:51:59.365Z,0.27
2018-12-10T20:54:27.666Z,2.07
2018-12-10T20:59:57.064Z,2.10
2018-12-10T21:02:29.206Z,0.60
2018-12-10T21:04:55.938Z,0.20
2018-12-10T21:10:24.834Z,0.40
2018-12-10T21:12:53.225Z,0.13
2018-12-10T21:15:21.591Z,0.10
2018-12-10T21:20:51.065Z,0.60
2018-12-10T21:23:19.338Z,0.10
2018-12-10T21:25:50.809Z,1.10
2018-12-10T21:31:19.932Z,1.00
2018-12-10T21:33:48.265Z,0.50
2018-12-10T21:36:16.942Z,1.00
2018-12-10T21:41:46.670Z,0.67
2018-12-10T21:44:14.996Z,0.00
2018-12-10T21:46:43.369Z,0.10
2018-12-10T21:52:12.546Z,0.13
2018-12-10T21:54:40.850Z,0.87
2018-12-10T22:00:09.715Z,0.60
2018-12-10T22:02:39.301Z,0.93
2018-12-10T22:05:07.926Z,0.60
2018-12-10T22:10:38.227Z,0.77
2018-12-10T22:13:06.591Z,0.30
2018-12-10T22:15:34.936Z,0.07
2018-12-10T22:21:03.800Z,1.27
2018-12-10T22:23:33.055Z,0.50
2018-12-10T22:26:01.816Z,0.00
2018-12-10T22:31:31.763Z,0.10
2018-12-10T22:34:00.398Z,0.00
2018-12-10T22:36:28.627Z,1.40
2018-12-10T22:41:58.044Z,0.00
2018-12-10T22:44:26.325Z,0.10
2018-12-10T22:46:55.070Z,0.10
2018-12-10T22:52:16.825Z,0.60
2018-12-10T22:54:45.361Z,0.10
2018-12-10T22:57:13.729Z,0.00
2018-12-10T23:03:39.175Z,0.13
2018-12-10T23:06:07.643Z,0.53
2018-12-10T23:08:36.024Z,0.47
2018-12-10T23:11:04.338Z,0.10
2018-12-10T23:13:33.207Z,0.07
2018-12-10T23:16:01.883Z,0.17
2018-12-10T23:21:23.317Z,0.00
2018-12-10T23:23:51.778Z,1.10
2018-12-10T23:26:25.750Z,0.00
2018-12-10T23:31:52.775Z,0.00
2018-12-10T23:34:24.627Z,0.10
2018-12-10T23:36:55.177Z,0.70
2018-12-10T23:39:29.438Z,0.00
2018-12-10T23:41:59.088Z,0.20
2018-12-10T23:44:35.902Z,0.00
2018-12-10T23:47:07.972Z,0.17
2018-12-10T23:49:42.558Z,0.03
2018-12-10T23:52:17.143Z,0.13
2018-12-10T23:54:48.717Z,0.00
2018-12-10T23:57:22.817Z,1.03
2018-12-10T23:59:54.917Z,2.40
